sensor_id;sensor_type;location;lat;lon;timestamp;temperature;humidity
15217;DHT22;7711;46.634;14.318;2022-10-16T00:01:41;8.70;99.90
15217;DHT22;7711;46.634;14.318;2022-10-16T00:04:09;8.80;99.90
15217;DHT22;7711;46.634;14.318;2022-10-16T00:06:36;8.80;99.90
15217;DHT22;7711;46.634;14.318;2022-10-16T00:09:03;8.80;99.90
15217;DHT22;7711;46.634;14.318;2022-10-16T00:11:33;8.80;99.90
15217;DHT22;7711;46.634;14.318;2022-10-16T00:14:04;8.80;99.90
15217;DHT22;7711;46.634;14.318;2022-10-16T00:16:32;8.80;99.90
15217;DHT22;7711;46.634;14.318;2022-10-16T00:19:02;8.80;99.90
15217;DHT22;7711;46.634;14.318;2022-10-16T00:21:30;8.80;99.90
15217;DHT22;7711;46.634;14.318;2022-10-16T00:23:59;8.70;99.90
15217;DHT22;7711;46.634;14.318;2022-10-16T00:26:26;8.70;99.90
15217;DHT22;7711;46.634;14.318;2022-10-16T00:28:55;8.70;99.90
15217;DHT22;7711;46.634;14.318;2022-10-16T00:31:23;8.70;99.90
15217;DHT22;7711;46.634;14.318;2022-10-16T00:33:50;8.70;99.90
15217;DHT22;7711;46.634;14.318;2022-10-16T00:36:20;8.70;99.90
15217;DHT22;7711;46.634;14.318;2022-10-16T00:38:50;8.70;99.90
15217;DHT22;7711;46.634;14.318;2022-10-16T00:41:18;8.70;99.90
15217;DHT22;7711;46.634;14.318;2022-10-16T00:43:47;8.70;99.90
15217;DHT22;7711;46.634;14.318;2022-10-16T00:46:20;8.80;99.90
15217;DHT22;7711;46.634;14.318;2022-10-16T00:48:51;8.80;99.90
15217;DHT22;7711;46.634;14.318;2022-10-16T00:51:21;8.80;99.90
15217;DHT22;7711;46.634;14.318;2022-10-16T00:53:50;8.80;99.90
15217;DHT22;7711;46.634;14.318;2022-10-16T00:56:17;8.80;99.90
15217;DHT22;7711;46.634;14.318;2022-10-16T00:58:45;8.80;99.90
15217;DHT22;7711;46.634;14.318;2022-10-16T01:01:12;8.80;99.90
15217;DHT22;7711;46.634;14.318;2022-10-16T01:03:52;8.80;99.90
15217;DHT22;7711;46.634;14.318;2022-10-16T01:06:23;8.90;99.90
15217;DHT22;7711;46.634;14.318;2022-10-16T01:09:11;8.90;99.90
15217;DHT22;7711;46.634;14.318;2022-10-16T01:11:47;8.90;99.90
15217;DHT22;7711;46.634;14.318;2022-10-16T01:14:22;8.90;99.90
15217;DHT22;7711;46.634;14.318;2022-10-16T01:16:57;8.90;99.90
15217;DHT22;7711;46.634;14.318;2022-10-16T01:19:41;8.90;99.90
15217;DHT22;7711;46.634;14.318;2022-10-16T01:22:11;8.90;99.90
15217;DHT22;7711;46.634;14.318;2022-10-16T01:24:41;8.80;99.90
15217;DHT22;7711;46.634;14.318;2022-10-16T01:27:16;8.90;99.90
15217;DHT22;7711;46.634;14.318;2022-10-16T01:29:51;8.90;99.90
15217;DHT22;7711;46.634;14.318;2022-10-16T01:32:26;8.80;99.90
15217;DHT22;7711;46.634;14.318;2022-10-16T01:35:00;8.80;99.90
15217;DHT22;7711;46.634;14.318;2022-10-16T01:37:32;8.80;99.90
15217;DHT22;7711;46.634;14.318;2022-10-16T01:40:06;8.70;99.90
15217;DHT22;7711;46.634;14.318;2022-10-16T01:42:40;8.60;99.90
15217;DHT22;7711;46.634;14.318;2022-10-16T01:45:11;8.50;99.90
15217;DHT22;7711;46.634;14.318;2022-10-16T01:47:40;8.50;99.90
15217;DHT22;7711;46.634;14.318;2022-10-16T01:50:11;8.40;99.90
15217;DHT22;7711;46.634;14.318;2022-10-16T01:52:43;8.40;99.90
15217;DHT22;7711;46.634;14.318;2022-10-16T01:55:14;8.40;99.90
15217;DHT22;7711;46.634;14.318;2022-10-16T01:57:46;8.30;99.90
15217;DHT22;7711;46.634;14.318;2022-10-16T02:00:17;8.20;99.90
15217;DHT22;7711;46.634;14.318;2022-10-16T02:02:47;8.20;99.90
15217;DHT22;7711;46.634;14.318;2022-10-16T02:05:18;8.20;99.90
15217;DHT22;7711;46.634;14.318;2022-10-16T02:07:48;8.10;99.90
15217;DHT22;7711;46.634;14.318;2022-10-16T02:10:17;8.00;99.90
15217;DHT22;7711;46.634;14.318;2022-10-16T02:12:49;8.00;99.90
15217;DHT22;7711;46.634;14.318;2022-10-16T02:15:17;8.00;99.90
15217;DHT22;7711;46.634;14.318;2022-10-16T02:17:44;8.00;99.90
15217;DHT22;7711;46.634;14.318;2022-10-16T02:20:11;8.00;99.90
15217;DHT22;7711;46.634;14.318;2022-10-16T02:22:40;8.00;99.90
15217;DHT22;7711;46.634;14.318;2022-10-16T02:25:15;8.00;99.90
15217;DHT22;7711;46.634;14.318;2022-10-16T02:27:49;8.00;99.90
15217;DHT22;7711;46.634;14.318;2022-10-16T02:30:22;8.00;99.90
15217;DHT22;7711;46.634;14.318;2022-10-16T02:32:52;8.00;99.90
15217;DHT22;7711;46.634;14.318;2022-10-16T02:35:21;8.00;99.90
15217;DHT22;7711;46.634;14.318;2022-10-16T02:37:50;7.90;99.90
15217;DHT22;7711;46.634;14.318;2022-10-16T02:40:19;7.90;99.90
15217;DHT22;7711;46.634;14.318;2022-10-16T02:42:51;7.90;99.90
15217;DHT22;7711;46.634;14.318;2022-10-16T02:45:19;7.90;99.90
15217;DHT22;7711;46.634;14.318;2022-10-16T02:47:46;8.00;99.90
15217;DHT22;7711;46.634;14.318;2022-10-16T02:50:14;8.00;99.90
15217;DHT22;7711;46.634;14.318;2022-10-16T02:52:41;8.00;99.90
15217;DHT22;7711;46.634;14.318;2022-10-16T02:55:08;8.00;99.90
15217;DHT22;7711;46.634;14.318;2022-10-16T02:57:36;8.00;99.90
15217;DHT22;7711;46.634;14.318;2022-10-16T03:00:09;8.00;99.90
15217;DHT22;7711;46.634;14.318;2022-10-16T03:02:38;8.00;99.90
15217;DHT22;7711;46.634;14.318;2022-10-16T03:05:06;8.10;99.90
15217;DHT22;7711;46.634;14.318;2022-10-16T03:07:33;8.00;99.90
15217;DHT22;7711;46.634;14.318;2022-10-16T03:10:00;8.20;99.90
15217;DHT22;7711;46.634;14.318;2022-10-16T03:12:27;8.10;99.90
15217;DHT22;7711;46.634;14.318;2022-10-16T03:14:55;8.10;99.90
15217;DHT22;7711;46.634;14.318;2022-10-16T03:17:25;8.10;99.90
15217;DHT22;7711;46.634;14.318;2022-10-16T03:19:52;8.20;99.90
15217;DHT22;7711;46.634;14.318;2022-10-16T03:22:19;8.20;99.90
15217;DHT22;7711;46.634;14.318;2022-10-16T03:24:48;8.30;99.90
15217;DHT22;7711;46.634;14.318;2022-10-16T03:27:17;8.20;99.90
15217;DHT22;7711;46.634;14.318;2022-10-16T03:29:44;8.10;99.90
15217;DHT22;7711;46.634;14.318;2022-10-16T03:32:11;8.10;99.90
15217;DHT22;7711;46.634;14.318;2022-10-16T03:34:39;8.10;99.90
15217;DHT22;7711;46.634;14.318;2022-10-16T03:37:08;8.10;99.90
15217;DHT22;7711;46.634;14.318;2022-10-16T03:39:35;8.10;99.90
15217;DHT22;7711;46.634;14.318;2022-10-16T03:42:05;8.10;99.90
15217;DHT22;7711;46.634;14.318;2022-10-16T03:44:32;8.10;99.90
15217;DHT22;7711;46.634;14.318;2022-10-16T03:46:59;8.10;99.90
15217;DHT22;7711;46.634;14.318;2022-10-16T03:49:27;8.10;99.90
15217;DHT22;7711;46.634;14.318;2022-10-16T03:51:57;7.90;99.90
15217;DHT22;7711;46.634;14.318;2022-10-16T03:54:24;7.90;99.90
15217;DHT22;7711;46.634;14.318;2022-10-16T03:56:52;7.90;99.90
15217;DHT22;7711;46.634;14.318;2022-10-16T03:59:19;7.80;99.90
15217;DHT22;7711;46.634;14.318;2022-10-16T04:01:46;7.80;99.90
15217;DHT22;7711;46.634;14.318;2022-10-16T04:04:13;7.80;99.90
15217;DHT22;7711;46.634;14.318;2022-10-16T04:06:40;7.80;99.90
15217;DHT22;7711;46.634;14.318;2022-10-16T04:09:09;7.80;99.90
15217;DHT22;7711;46.634;14.318;2022-10-16T04:11:36;7.80;99.90
15217;DHT22;7711;46.634;14.318;2022-10-16T04:14:04;7.70;99.90
15217;DHT22;7711;46.634;14.318;2022-10-16T04:16:31;7.70;99.90
15217;DHT22;7711;46.634;14.318;2022-10-16T04:18:59;7.60;99.90
15217;DHT22;7711;46.634;14.318;2022-10-16T04:21:26;7.70;99.90
15217;DHT22;7711;46.634;14.318;2022-10-16T04:23:53;7.70;99.90
15217;DHT22;7711;46.634;14.318;2022-10-16T04:26:21;7.70;99.90
15217;DHT22;7711;46.634;14.318;2022-10-16T04:28:49;7.70;99.90
15217;DHT22;7711;46.634;14.318;2022-10-16T04:31:16;7.70;99.90
15217;DHT22;7711;46.634;14.318;2022-10-16T04:33:43;7.60;99.90
15217;DHT22;7711;46.634;14.318;2022-10-16T04:36:10;7.60;99.90
15217;DHT22;7711;46.634;14.318;2022-10-16T04:38:38;7.60;99.90
15217;DHT22;7711;46.634;14.318;2022-10-16T04:41:05;7.60;99.90
15217;DHT22;7711;46.634;14.318;2022-10-16T04:43:34;7.60;99.90
15217;DHT22;7711;46.634;14.318;2022-10-16T04:46:01;7.60;99.90
15217;DHT22;7711;46.634;14.318;2022-10-16T04:48:30;7.60;99.90
15217;DHT22;7711;46.634;14.318;2022-10-16T04:50:57;7.70;99.90
15217;DHT22;7711;46.634;14.318;2022-10-16T04:53:24;7.70;99.90
15217;DHT22;7711;46.634;14.318;2022-10-16T04:55:51;7.60;99.90
15217;DHT22;7711;46.634;14.318;2022-10-16T04:58:19;7.60;99.90
15217;DHT22;7711;46.634;14.318;2022-10-16T05:00:47;7.60;99.90
15217;DHT22;7711;46.634;14.318;2022-10-16T05:03:14;7.60;99.90
15217;DHT22;7711;46.634;14.318;2022-10-16T05:05:43;7.60;99.90
15217;DHT22;7711;46.634;14.318;2022-10-16T05:08:11;7.70;99.90
15217;DHT22;7711;46.634;14.318;2022-10-16T05:10:38;7.80;99.90
15217;DHT22;7711;46.634;14.318;2022-10-16T05:13:05;7.70;99.90
15217;DHT22;7711;46.634;14.318;2022-10-16T05:15:32;7.70;99.90
15217;DHT22;7711;46.634;14.318;2022-10-16T05:18:00;7.70;99.90
15217;DHT22;7711;46.634;14.318;2022-10-16T05:20:28;7.70;99.90
15217;DHT22;7711;46.634;14.318;2022-10-16T05:22:55;7.80;99.90
15217;DHT22;7711;46.634;14.318;2022-10-16T05:25:22;7.60;99.90
15217;DHT22;7711;46.634;14.318;2022-10-16T05:27:49;7.80;99.90
15217;DHT22;7711;46.634;14.318;2022-10-16T05:30:17;7.90;99.90
15217;DHT22;7711;46.634;14.318;2022-10-16T05:32:47;7.90;99.90
15217;DHT22;7711;46.634;14.318;2022-10-16T05:35:16;7.80;99.90
15217;DHT22;7711;46.634;14.318;2022-10-16T05:37:44;7.80;99.90
15217;DHT22;7711;46.634;14.318;2022-10-16T05:40:11;7.80;99.90
15217;DHT22;7711;46.634;14.318;2022-10-16T05:42:38;7.80;99.90
15217;DHT22;7711;46.634;14.318;2022-10-16T05:45:07;7.70;99.90
15217;DHT22;7711;46.634;14.318;2022-10-16T05:47:35;7.70;99.90
15217;DHT22;7711;46.634;14.318;2022-10-16T05:50:02;7.80;99.90
15217;DHT22;7711;46.634;14.318;2022-10-16T05:52:32;7.80;99.90
15217;DHT22;7711;46.634;14.318;2022-10-16T05:54:59;7.90;99.90
15217;DHT22;7711;46.634;14.318;2022-10-16T05:57:26;7.90;99.90
15217;DHT22;7711;46.634;14.318;2022-10-16T05:59:54;7.90;99.90
15217;DHT22;7711;46.634;14.318;2022-10-16T06:02:21;7.80;99.90
15217;DHT22;7711;46.634;14.318;2022-10-16T06:04:48;7.80;99.90
15217;DHT22;7711;46.634;14.318;2022-10-16T06:07:18;7.80;99.90
15217;DHT22;7711;46.634;14.318;2022-10-16T06:09:49;7.80;99.90
15217;DHT22;7711;46.634;14.318;2022-10-16T06:12:16;7.80;99.90
15217;DHT22;7711;46.634;14.318;2022-10-16T06:14:44;7.80;99.90
15217;DHT22;7711;46.634;14.318;2022-10-16T06:17:12;7.80;99.90
15217;DHT22;7711;46.634;14.318;2022-10-16T06:19:42;7.90;99.90
15217;DHT22;7711;46.634;14.318;2022-10-16T06:22:09;8.10;99.90
15217;DHT22;7711;46.634;14.318;2022-10-16T06:24:37;8.00;99.90
15217;DHT22;7711;46.634;14.318;2022-10-16T06:27:05;8.10;99.90
15217;DHT22;7711;46.634;14.318;2022-10-16T06:29:35;8.10;99.90
15217;DHT22;7711;46.634;14.318;2022-10-16T06:32:02;8.20;99.90
15217;DHT22;7711;46.634;14.318;2022-10-16T06:34:29;8.30;99.90
15217;DHT22;7711;46.634;14.318;2022-10-16T06:36:57;8.40;99.90
15217;DHT22;7711;46.634;14.318;2022-10-16T06:39:24;8.40;99.90
15217;DHT22;7711;46.634;14.318;2022-10-16T06:41:52;8.50;99.90
15217;DHT22;7711;46.634;14.318;2022-10-16T06:44:21;8.50;99.90
15217;DHT22;7711;46.634;14.318;2022-10-16T06:46:48;8.60;99.90
15217;DHT22;7711;46.634;14.318;2022-10-16T06:49:15;8.70;99.90
15217;DHT22;7711;46.634;14.318;2022-10-16T06:51:48;8.70;99.90
15217;DHT22;7711;46.634;14.318;2022-10-16T06:54:15;8.80;99.90
15217;DHT22;7711;46.634;14.318;2022-10-16T06:56:43;8.70;99.90
15217;DHT22;7711;46.634;14.318;2022-10-16T06:59:11;8.80;99.90
15217;DHT22;7711;46.634;14.318;2022-10-16T07:01:41;8.80;99.90
15217;DHT22;7711;46.634;14.318;2022-10-16T07:04:10;8.70;99.90
15217;DHT22;7711;46.634;14.318;2022-10-16T07:06:38;8.60;99.90
15217;DHT22;7711;46.634;14.318;2022-10-16T07:09:06;8.60;99.90
15217;DHT22;7711;46.634;14.318;2022-10-16T07:11:34;8.60;99.90
15217;DHT22;7711;46.634;14.318;2022-10-16T07:14:02;8.60;99.90
15217;DHT22;7711;46.634;14.318;2022-10-16T07:16:31;8.60;99.90
15217;DHT22;7711;46.634;14.318;2022-10-16T07:19:01;8.80;99.90
15217;DHT22;7711;46.634;14.318;2022-10-16T07:21:29;8.70;99.90
15217;DHT22;7711;46.634;14.318;2022-10-16T07:24:01;8.70;99.90
15217;DHT22;7711;46.634;14.318;2022-10-16T07:26:30;8.90;99.90
15217;DHT22;7711;46.634;14.318;2022-10-16T07:28:58;9.00;99.90
15217;DHT22;7711;46.634;14.318;2022-10-16T07:31:26;9.30;99.90
15217;DHT22;7711;46.634;14.318;2022-10-16T07:33:53;9.30;99.90
15217;DHT22;7711;46.634;14.318;2022-10-16T07:36:24;9.20;99.90
15217;DHT22;7711;46.634;14.318;2022-10-16T07:38:51;9.40;99.90
15217;DHT22;7711;46.634;14.318;2022-10-16T07:41:19;9.60;99.90
15217;DHT22;7711;46.634;14.318;2022-10-16T07:43:50;9.80;99.90
15217;DHT22;7711;46.634;14.318;2022-10-16T07:46:18;10.10;99.90
15217;DHT22;7711;46.634;14.318;2022-10-16T07:48:45;10.30;99.90
15217;DHT22;7711;46.634;14.318;2022-10-16T07:51:15;10.10;99.90
15217;DHT22;7711;46.634;14.318;2022-10-16T07:53:44;10.20;99.90
15217;DHT22;7711;46.634;14.318;2022-10-16T07:56:12;10.10;99.90
15217;DHT22;7711;46.634;14.318;2022-10-16T07:58:41;10.20;99.90
15217;DHT22;7711;46.634;14.318;2022-10-16T08:01:11;10.10;99.90
15217;DHT22;7711;46.634;14.318;2022-10-16T08:03:40;10.20;99.90
15217;DHT22;7711;46.634;14.318;2022-10-16T08:06:12;10.20;99.90
15217;DHT22;7711;46.634;14.318;2022-10-16T08:08:40;10.20;99.90
15217;DHT22;7711;46.634;14.318;2022-10-16T08:11:10;10.40;99.90
15217;DHT22;7711;46.634;14.318;2022-10-16T08:13:37;10.40;99.90
15217;DHT22;7711;46.634;14.318;2022-10-16T08:16:05;10.40;99.90
15217;DHT22;7711;46.634;14.318;2022-10-16T08:18:34;10.60;99.90
15217;DHT22;7711;46.634;14.318;2022-10-16T08:21:04;10.70;99.90
15217;DHT22;7711;46.634;14.318;2022-10-16T08:23:32;10.80;99.90
15217;DHT22;7711;46.634;14.318;2022-10-16T08:26:03;10.70;99.90
15217;DHT22;7711;46.634;14.318;2022-10-16T08:28:33;10.70;99.90
15217;DHT22;7711;46.634;14.318;2022-10-16T08:31:10;10.60;99.90
15217;DHT22;7711;46.634;14.318;2022-10-16T08:33:38;10.50;99.90
15217;DHT22;7711;46.634;14.318;2022-10-16T08:36:06;10.40;99.90
15217;DHT22;7711;46.634;14.318;2022-10-16T08:38:33;10.50;99.90
15217;DHT22;7711;46.634;14.318;2022-10-16T08:41:21;10.70;99.90
15217;DHT22;7711;46.634;14.318;2022-10-16T08:46:54;11.00;99.90
15217;DHT22;7711;46.634;14.318;2022-10-16T08:49:27;11.00;99.90
15217;DHT22;7711;46.634;14.318;2022-10-16T08:51:55;11.00;99.90
15217;DHT22;7711;46.634;14.318;2022-10-16T08:54:29;11.30;99.90
15217;DHT22;7711;46.634;14.318;2022-10-16T08:56:57;11.50;99.90
15217;DHT22;7711;46.634;14.318;2022-10-16T08:59:30;11.50;99.90
15217;DHT22;7711;46.634;14.318;2022-10-16T09:02:01;11.90;99.90
15217;DHT22;7711;46.634;14.318;2022-10-16T09:04:48;12.10;99.90
15217;DHT22;7711;46.634;14.318;2022-10-16T09:07:23;12.10;99.90
15217;DHT22;7711;46.634;14.318;2022-10-16T09:10:12;12.00;99.90
15217;DHT22;7711;46.634;14.318;2022-10-16T09:12:48;11.90;99.90
15217;DHT22;7711;46.634;14.318;2022-10-16T09:15:30;12.10;99.90
15217;DHT22;7711;46.634;14.318;2022-10-16T09:18:03;12.30;99.90
15217;DHT22;7711;46.634;14.318;2022-10-16T09:20:49;12.20;99.90
15217;DHT22;7711;46.634;14.318;2022-10-16T09:23:19;12.40;99.90
15217;DHT22;7711;46.634;14.318;2022-10-16T09:25:49;12.30;99.90
15217;DHT22;7711;46.634;14.318;2022-10-16T09:28:17;12.30;99.90
15217;DHT22;7711;46.634;14.318;2022-10-16T09:30:46;12.50;99.90
15217;DHT22;7711;46.634;14.318;2022-10-16T09:33:17;12.50;99.90
15217;DHT22;7711;46.634;14.318;2022-10-16T09:35:50;12.50;99.90
15217;DHT22;7711;46.634;14.318;2022-10-16T09:38:22;12.70;99.90
15217;DHT22;7711;46.634;14.318;2022-10-16T09:40:54;12.90;99.90
15217;DHT22;7711;46.634;14.318;2022-10-16T09:43:24;13.00;99.90
15217;DHT22;7711;46.634;14.318;2022-10-16T09:45:59;13.10;99.90
15217;DHT22;7711;46.634;14.318;2022-10-16T09:48:31;13.30;99.90
15217;DHT22;7711;46.634;14.318;2022-10-16T09:51:06;13.20;99.90
15217;DHT22;7711;46.634;14.318;2022-10-16T09:53:42;13.40;99.90
15217;DHT22;7711;46.634;14.318;2022-10-16T09:56:11;13.40;99.90
15217;DHT22;7711;46.634;14.318;2022-10-16T09:58:49;13.60;99.90
15217;DHT22;7711;46.634;14.318;2022-10-16T10:01:19;13.80;99.90
15217;DHT22;7711;46.634;14.318;2022-10-16T10:03:48;13.70;99.90
15217;DHT22;7711;46.634;14.318;2022-10-16T10:06:27;13.80;99.90
15217;DHT22;7711;46.634;14.318;2022-10-16T10:09:03;13.90;99.90
15217;DHT22;7711;46.634;14.318;2022-10-16T10:11:45;14.00;99.90
15217;DHT22;7711;46.634;14.318;2022-10-16T10:14:32;14.40;99.90
15217;DHT22;7711;46.634;14.318;2022-10-16T10:17:21;14.10;99.90
15217;DHT22;7711;46.634;14.318;2022-10-16T10:19:53;14.10;99.90
15217;DHT22;7711;46.634;14.318;2022-10-16T10:22:26;14.40;99.90
15217;DHT22;7711;46.634;14.318;2022-10-16T10:24:59;14.70;99.90
15217;DHT22;7711;46.634;14.318;2022-10-16T10:27:34;14.90;99.90
15217;DHT22;7711;46.634;14.318;2022-10-16T10:30:10;15.00;99.90
15217;DHT22;7711;46.634;14.318;2022-10-16T10:32:52;15.20;99.90
15217;DHT22;7711;46.634;14.318;2022-10-16T10:35:24;15.50;99.90
15217;DHT22;7711;46.634;14.318;2022-10-16T10:38:20;15.50;99.90
15217;DHT22;7711;46.634;14.318;2022-10-16T10:40:55;15.70;99.90
15217;DHT22;7711;46.634;14.318;2022-10-16T10:43:46;16.00;99.90
15217;DHT22;7711;46.634;14.318;2022-10-16T10:46:25;16.10;99.90
15217;DHT22;7711;46.634;14.318;2022-10-16T10:49:10;16.20;99.90
15217;DHT22;7711;46.634;14.318;2022-10-16T10:51:44;16.30;99.90
15217;DHT22;7711;46.634;14.318;2022-10-16T10:54:24;16.30;99.90
15217;DHT22;7711;46.634;14.318;2022-10-16T10:57:00;16.60;99.90
15217;DHT22;7711;46.634;14.318;2022-10-16T10:59:43;16.80;99.90
15217;DHT22;7711;46.634;14.318;2022-10-16T11:02:19;16.80;99.90
15217;DHT22;7711;46.634;14.318;2022-10-16T11:05:12;17.00;99.90
15217;DHT22;7711;46.634;14.318;2022-10-16T11:07:49;16.70;99.90
15217;DHT22;7711;46.634;14.318;2022-10-16T11:10:22;16.90;99.90
15217;DHT22;7711;46.634;14.318;2022-10-16T11:12:58;16.80;99.90
15217;DHT22;7711;46.634;14.318;2022-10-16T11:15:31;16.90;99.90
15217;DHT22;7711;46.634;14.318;2022-10-16T11:18:04;17.20;99.90
15217;DHT22;7711;46.634;14.318;2022-10-16T11:20:40;17.50;99.90
15217;DHT22;7711;46.634;14.318;2022-10-16T11:23:16;17.60;99.90
15217;DHT22;7711;46.634;14.318;2022-10-16T11:25:48;17.40;99.90
15217;DHT22;7711;46.634;14.318;2022-10-16T11:28:18;17.60;99.90
15217;DHT22;7711;46.634;14.318;2022-10-16T11:30:50;17.70;99.90
15217;DHT22;7711;46.634;14.318;2022-10-16T11:33:36;17.90;99.90
15217;DHT22;7711;46.634;14.318;2022-10-16T11:36:14;18.00;99.90
15217;DHT22;7711;46.634;14.318;2022-10-16T11:38:49;18.30;99.90
15217;DHT22;7711;46.634;14.318;2022-10-16T11:41:24;18.30;99.90
15217;DHT22;7711;46.634;14.318;2022-10-16T11:44:06;18.70;99.90
15217;DHT22;7711;46.634;14.318;2022-10-16T11:46:42;18.60;99.90
15217;DHT22;7711;46.634;14.318;2022-10-16T11:49:19;18.30;99.90
15217;DHT22;7711;46.634;14.318;2022-10-16T11:51:57;18.40;99.90
15217;DHT22;7711;46.634;14.318;2022-10-16T11:54:31;18.80;99.90
15217;DHT22;7711;46.634;14.318;2022-10-16T11:57:11;19.00;99.90
15217;DHT22;7711;46.634;14.318;2022-10-16T11:59:45;18.80;99.90
15217;DHT22;7711;46.634;14.318;2022-10-16T12:02:44;18.80;99.90
15217;DHT22;7711;46.634;14.318;2022-10-16T12:05:22;18.60;99.90
15217;DHT22;7711;46.634;14.318;2022-10-16T12:08:02;18.50;99.90
15217;DHT22;7711;46.634;14.318;2022-10-16T12:10:31;18.70;99.90
15217;DHT22;7711;46.634;14.318;2022-10-16T12:15:47;19.10;99.90
15217;DHT22;7711;46.634;14.318;2022-10-16T12:18:24;19.40;99.90
15217;DHT22;7711;46.634;14.318;2022-10-16T12:20:55;19.10;99.90
15217;DHT22;7711;46.634;14.318;2022-10-16T12:23:27;19.20;99.90
15217;DHT22;7711;46.634;14.318;2022-10-16T12:25:55;19.40;99.90
15217;DHT22;7711;46.634;14.318;2022-10-16T12:28:31;19.50;99.90
15217;DHT22;7711;46.634;14.318;2022-10-16T12:31:01;19.30;99.90
15217;DHT22;7711;46.634;14.318;2022-10-16T12:33:34;19.50;99.90
15217;DHT22;7711;46.634;14.318;2022-10-16T12:36:04;19.60;99.90
15217;DHT22;7711;46.634;14.318;2022-10-16T12:38:38;19.60;99.90
15217;DHT22;7711;46.634;14.318;2022-10-16T12:41:12;19.90;99.90
15217;DHT22;7711;46.634;14.318;2022-10-16T12:43:48;19.40;99.90
15217;DHT22;7711;46.634;14.318;2022-10-16T12:46:37;19.90;99.90
15217;DHT22;7711;46.634;14.318;2022-10-16T12:49:22;19.70;99.90
15217;DHT22;7711;46.634;14.318;2022-10-16T12:51:51;20.10;99.90
15217;DHT22;7711;46.634;14.318;2022-10-16T12:54:24;20.80;99.90
15217;DHT22;7711;46.634;14.318;2022-10-16T12:57:09;21.30;99.90
15217;DHT22;7711;46.634;14.318;2022-10-16T12:59:45;21.70;99.90
15217;DHT22;7711;46.634;14.318;2022-10-16T13:02:46;22.80;99.90
15217;DHT22;7711;46.634;14.318;2022-10-16T13:05:30;23.80;99.90
15217;DHT22;7711;46.634;14.318;2022-10-16T13:08:17;25.10;99.90
15217;DHT22;7711;46.634;14.318;2022-10-16T13:11:03;26.10;99.90
15217;DHT22;7711;46.634;14.318;2022-10-16T13:13:56;25.70;99.90
15217;DHT22;7711;46.634;14.318;2022-10-16T13:16:37;26.10;99.90
15217;DHT22;7711;46.634;14.318;2022-10-16T13:19:23;26.80;99.90
15217;DHT22;7711;46.634;14.318;2022-10-16T13:22:00;26.90;99.90
15217;DHT22;7711;46.634;14.318;2022-10-16T13:24:55;27.20;99.90
15217;DHT22;7711;46.634;14.318;2022-10-16T13:27:38;26.00;99.90
15217;DHT22;7711;46.634;14.318;2022-10-16T13:30:12;24.90;99.90
15217;DHT22;7711;46.634;14.318;2022-10-16T13:32:45;25.20;99.90
15217;DHT22;7711;46.634;14.318;2022-10-16T13:35:24;25.50;99.90
15217;DHT22;7711;46.634;14.318;2022-10-16T13:38:12;26.50;99.90
15217;DHT22;7711;46.634;14.318;2022-10-16T13:40:52;27.00;99.90
15217;DHT22;7711;46.634;14.318;2022-10-16T13:43:34;26.60;99.90
15217;DHT22;7711;46.634;14.318;2022-10-16T13:46:07;26.50;99.90
15217;DHT22;7711;46.634;14.318;2022-10-16T13:48:39;26.90;99.90
15217;DHT22;7711;46.634;14.318;2022-10-16T13:51:13;26.90;99.90
15217;DHT22;7711;46.634;14.318;2022-10-16T13:53:42;27.00;99.90
15217;DHT22;7711;46.634;14.318;2022-10-16T13:56:13;27.30;99.90
15217;DHT22;7711;46.634;14.318;2022-10-16T13:59:03;27.20;99.90
15217;DHT22;7711;46.634;14.318;2022-10-16T14:01:43;27.30;99.90
15217;DHT22;7711;46.634;14.318;2022-10-16T14:04:14;27.20;99.90
15217;DHT22;7711;46.634;14.318;2022-10-16T14:06:44;26.90;99.90
15217;DHT22;7711;46.634;14.318;2022-10-16T14:09:27;26.00;99.90
15217;DHT22;7711;46.634;14.318;2022-10-16T14:11:59;26.30;99.90
15217;DHT22;7711;46.634;14.318;2022-10-16T14:14:34;25.60;99.90
15217;DHT22;7711;46.634;14.318;2022-10-16T14:17:02;26.40;99.90
15217;DHT22;7711;46.634;14.318;2022-10-16T14:19:39;26.50;99.90
15217;DHT22;7711;46.634;14.318;2022-10-16T14:22:29;27.00;99.90
15217;DHT22;7711;46.634;14.318;2022-10-16T14:25:23;26.90;99.90
15217;DHT22;7711;46.634;14.318;2022-10-16T14:28:01;26.30;99.90
15217;DHT22;7711;46.634;14.318;2022-10-16T14:30:35;26.60;99.90
15217;DHT22;7711;46.634;14.318;2022-10-16T14:33:23;26.50;99.90
15217;DHT22;7711;46.634;14.318;2022-10-16T14:36:06;26.80;99.90
15217;DHT22;7711;46.634;14.318;2022-10-16T14:38:40;27.00;99.90
15217;DHT22;7711;46.634;14.318;2022-10-16T14:41:12;26.80;99.90
15217;DHT22;7711;46.634;14.318;2022-10-16T14:43:51;26.50;99.90
15217;DHT22;7711;46.634;14.318;2022-10-16T14:46:28;26.70;99.90
15217;DHT22;7711;46.634;14.318;2022-10-16T14:49:00;26.70;99.90
15217;DHT22;7711;46.634;14.318;2022-10-16T14:51:29;26.50;99.90
15217;DHT22;7711;46.634;14.318;2022-10-16T14:53:57;26.60;99.90
15217;DHT22;7711;46.634;14.318;2022-10-16T14:56:28;26.30;99.90
15217;DHT22;7711;46.634;14.318;2022-10-16T14:58:58;26.30;99.90
15217;DHT22;7711;46.634;14.318;2022-10-16T15:01:27;26.10;99.90
15217;DHT22;7711;46.634;14.318;2022-10-16T15:03:57;26.30;99.90
15217;DHT22;7711;46.634;14.318;2022-10-16T15:06:24;26.00;99.90
15217;DHT22;7711;46.634;14.318;2022-10-16T15:08:52;25.10;99.90
15217;DHT22;7711;46.634;14.318;2022-10-16T15:11:21;25.40;99.90
15217;DHT22;7711;46.634;14.318;2022-10-16T15:13:52;25.60;99.90
15217;DHT22;7711;46.634;14.318;2022-10-16T15:16:19;25.20;99.90
15217;DHT22;7711;46.634;14.318;2022-10-16T15:18:49;24.80;99.90
15217;DHT22;7711;46.634;14.318;2022-10-16T15:21:22;24.70;99.90
15217;DHT22;7711;46.634;14.318;2022-10-16T15:23:50;24.20;99.90
15217;DHT22;7711;46.634;14.318;2022-10-16T15:26:18;23.10;99.90
15217;DHT22;7711;46.634;14.318;2022-10-16T15:28:45;22.50;99.90
15217;DHT22;7711;46.634;14.318;2022-10-16T15:31:12;21.80;99.90
15217;DHT22;7711;46.634;14.318;2022-10-16T15:33:40;21.20;99.90
15217;DHT22;7711;46.634;14.318;2022-10-16T15:36:11;20.60;99.90
15217;DHT22;7711;46.634;14.318;2022-10-16T15:38:38;20.10;99.90
15217;DHT22;7711;46.634;14.318;2022-10-16T15:41:05;19.70;99.90
15217;DHT22;7711;46.634;14.318;2022-10-16T15:43:33;19.50;99.90
15217;DHT22;7711;46.634;14.318;2022-10-16T15:46:03;19.20;99.90
15217;DHT22;7711;46.634;14.318;2022-10-16T15:48:31;18.90;99.90
15217;DHT22;7711;46.634;14.318;2022-10-16T15:51:00;18.70;99.90
15217;DHT22;7711;46.634;14.318;2022-10-16T15:53:28;18.50;99.90
15217;DHT22;7711;46.634;14.318;2022-10-16T15:55:56;18.30;99.90
15217;DHT22;7711;46.634;14.318;2022-10-16T15:58:25;18.10;99.90
15217;DHT22;7711;46.634;14.318;2022-10-16T16:00:55;18.00;99.90
15217;DHT22;7711;46.634;14.318;2022-10-16T16:03:27;17.80;99.90
15217;DHT22;7711;46.634;14.318;2022-10-16T16:06:04;17.60;99.90
15217;DHT22;7711;46.634;14.318;2022-10-16T16:08:33;17.40;99.90
15217;DHT22;7711;46.634;14.318;2022-10-16T16:11:02;17.30;99.90
15217;DHT22;7711;46.634;14.318;2022-10-16T16:13:30;17.10;99.90